sensor_id;sensor_type;location;lat;lon;timestamp;P1;durP1;ratioP1;P2;durP2;ratioP2
82511;SDS011;72152;65.012;25.464;2023-12-29T00:00:28;1.60;;;0.80;;
82511;SDS011;72152;65.012;25.464;2023-12-29T00:03:32;1.10;;;0.70;;
82511;SDS011;72152;65.012;25.464;2023-12-29T00:06:38;1.80;;;0.70;;
82511;SDS011;72152;65.012;25.464;2023-12-29T00:09:44;1.30;;;0.80;;
82511;SDS011;72152;65.012;25.464;2023-12-29T00:12:48;1.90;;;0.80;;
82511;SDS011;72152;65.012;25.464;2023-12-29T00:15:46;2.40;;;1.00;;
82511;SDS011;72152;65.012;25.464;2023-12-29T00:18:49;1.50;;;1.00;;
82511;SDS011;72152;65.012;25.464;2023-12-29T00:21:50;1.00;;;0.70;;
82511;SDS011;72152;65.012;25.464;2023-12-29T00:24:59;2.50;;;1.10;;
82511;SDS011;72152;65.012;25.464;2023-12-29T00:28:12;1.40;;;0.60;;
82511;SDS011;72152;65.012;25.464;2023-12-29T00:31:13;1.70;;;0.60;;
82511;SDS011;72152;65.012;25.464;2023-12-29T00:34:14;0.40;;;0.30;;
82511;SDS011;72152;65.012;25.464;2023-12-29T00:37:11;1.00;;;0.50;;
82511;SDS011;72152;65.012;25.464;2023-12-29T00:40:20;1.00;;;0.50;;
82511;SDS011;72152;65.012;25.464;2023-12-29T00:43:27;1.60;;;0.80;;
82511;SDS011;72152;65.012;25.464;2023-12-29T00:46:35;1.10;;;0.60;;
82511;SDS011;72152;65.012;25.464;2023-12-29T00:49:37;1.60;;;0.60;;
82511;SDS011;72152;65.012;25.464;2023-12-29T00:52:39;1.20;;;0.60;;
82511;SDS011;72152;65.012;25.464;2023-12-29T00:55:41;1.40;;;0.60;;
82511;SDS011;72152;65.012;25.464;2023-12-29T00:58:51;1.10;;;0.70;;
82511;SDS011;72152;65.012;25.464;2023-12-29T01:01:57;0.80;;;0.70;;
82511;SDS011;72152;65.012;25.464;2023-12-29T01:04:59;1.30;;;0.50;;
82511;SDS011;72152;65.012;25.464;2023-12-29T01:08:02;0.90;;;0.50;;
82511;SDS011;72152;65.012;25.464;2023-12-29T01:11:13;1.80;;;0.80;;
82511;SDS011;72152;65.012;25.464;2023-12-29T01:14:13;0.90;;;0.40;;
82511;SDS011;72152;65.012;25.464;2023-12-29T01:17:19;0.90;;;0.50;;
82511;SDS011;72152;65.012;25.464;2023-12-29T01:20:24;1.00;;;0.70;;
82511;SDS011;72152;65.012;25.464;2023-12-29T01:23:31;0.60;;;0.50;;
82511;SDS011;72152;65.012;25.464;2023-12-29T01:26:37;0.70;;;0.50;;
82511;SDS011;72152;65.012;25.464;2023-12-29T01:29:48;1.10;;;0.80;;
82511;SDS011;72152;65.012;25.464;2023-12-29T01:33:02;1.50;;;0.80;;
82511;SDS011;72152;65.012;25.464;2023-12-29T01:36:10;1.30;;;0.60;;
82511;SDS011;72152;65.012;25.464;2023-12-29T01:39:22;1.40;;;0.80;;
82511;SDS011;72152;65.012;25.464;2023-12-29T01:42:28;1.40;;;0.80;;
82511;SDS011;72152;65.012;25.464;2023-12-29T01:45:31;2.10;;;0.90;;
82511;SDS011;72152;65.012;25.464;2023-12-29T01:51:29;2.40;;;0.80;;
82511;SDS011;72152;65.012;25.464;2023-12-29T01:54:32;1.50;;;0.70;;
82511;SDS011;72152;65.012;25.464;2023-12-29T01:57:31;1.50;;;0.80;;
82511;SDS011;72152;65.012;25.464;2023-12-29T02:00:34;1.70;;;0.90;;
82511;SDS011;72152;65.012;25.464;2023-12-29T02:03:37;1.70;;;0.90;;
82511;SDS011;72152;65.012;25.464;2023-12-29T02:06:44;1.00;;;0.80;;
82511;SDS011;72152;65.012;25.464;2023-12-29T02:09:52;1.70;;;0.90;;
82511;SDS011;72152;65.012;25.464;2023-12-29T02:12:58;1.30;;;0.70;;
82511;SDS011;72152;65.012;25.464;2023-12-29T02:16:04;1.70;;;1.00;;
82511;SDS011;72152;65.012;25.464;2023-12-29T02:19:20;1.80;;;1.00;;
82511;SDS011;72152;65.012;25.464;2023-12-29T02:22:37;2.20;;;1.10;;
82511;SDS011;72152;65.012;25.464;2023-12-29T02:25:43;1.90;;;1.10;;
82511;SDS011;72152;65.012;25.464;2023-12-29T02:28:43;2.20;;;1.00;;
82511;SDS011;72152;65.012;25.464;2023-12-29T02:31:54;3.20;;;1.10;;
82511;SDS011;72152;65.012;25.464;2023-12-29T02:35:07;1.70;;;0.90;;
82511;SDS011;72152;65.012;25.464;2023-12-29T02:38:16;3.00;;;1.10;;
82511;SDS011;72152;65.012;25.464;2023-12-29T02:41:23;2.20;;;1.00;;
82511;SDS011;72152;65.012;25.464;2023-12-29T02:44:29;1.80;;;0.90;;
82511;SDS011;72152;65.012;25.464;2023-12-29T02:47:31;1.50;;;0.90;;
82511;SDS011;72152;65.012;25.464;2023-12-29T02:50:34;2.60;;;1.20;;
82511;SDS011;72152;65.012;25.464;2023-12-29T02:53:37;2.30;;;0.90;;
82511;SDS011;72152;65.012;25.464;2023-12-29T02:56:33;2.80;;;1.20;;
82511;SDS011;72152;65.012;25.464;2023-12-29T02:59:32;1.60;;;0.90;;
82511;SDS011;72152;65.012;25.464;2023-12-29T03:02:38;2.30;;;1.20;;
82511;SDS011;72152;65.012;25.464;2023-12-29T03:05:53;2.60;;;1.30;;
82511;SDS011;72152;65.012;25.464;2023-12-29T03:08:49;3.20;;;1.30;;
82511;SDS011;72152;65.012;25.464;2023-12-29T03:12:00;2.30;;;1.00;;
82511;SDS011;72152;65.012;25.464;2023-12-29T03:15:04;2.00;;;0.80;;
82511;SDS011;72152;65.012;25.464;2023-12-29T03:18:13;3.10;;;1.30;;
82511;SDS011;72152;65.012;25.464;2023-12-29T03:21:16;1.50;;;0.80;;
82511;SDS011;72152;65.012;25.464;2023-12-29T03:24:18;2.20;;;1.00;;
82511;SDS011;72152;65.012;25.464;2023-12-29T03:27:14;3.00;;;0.80;;
82511;SDS011;72152;65.012;25.464;2023-12-29T03:30:25;2.50;;;1.10;;
82511;SDS011;72152;65.012;25.464;2023-12-29T03:33:29;1.80;;;1.10;;
82511;SDS011;72152;65.012;25.464;2023-12-29T03:36:31;2.00;;;1.20;;
82511;SDS011;72152;65.012;25.464;2023-12-29T03:39:39;2.00;;;1.10;;
82511;SDS011;72152;65.012;25.464;2023-12-29T03:42:48;1.70;;;0.90;;
82511;SDS011;72152;65.012;25.464;2023-12-29T03:45:56;1.80;;;1.00;;
82511;SDS011;72152;65.012;25.464;2023-12-29T03:48:57;4.20;;;1.60;;
82511;SDS011;72152;65.012;25.464;2023-12-29T03:52:02;1.90;;;0.90;;
82511;SDS011;72152;65.012;25.464;2023-12-29T03:55:07;3.40;;;1.10;;
82511;SDS011;72152;65.012;25.464;2023-12-29T03:58:18;2.90;;;1.10;;
82511;SDS011;72152;65.012;25.464;2023-12-29T04:01:22;2.70;;;1.30;;
82511;SDS011;72152;65.012;25.464;2023-12-29T04:04:21;2.80;;;1.10;;
82511;SDS011;72152;65.012;25.464;2023-12-29T04:07:28;1.90;;;0.90;;
82511;SDS011;72152;65.012;25.464;2023-12-29T04:10:24;2.10;;;1.00;;
82511;SDS011;72152;65.012;25.464;2023-12-29T04:13:23;3.40;;;1.30;;
82511;SDS011;72152;65.012;25.464;2023-12-29T04:16:27;12.10;;;2.20;;
82511;SDS011;72152;65.012;25.464;2023-12-29T04:19:34;7.20;;;1.60;;
82511;SDS011;72152;65.012;25.464;2023-12-29T04:22:36;5.30;;;1.40;;
82511;SDS011;72152;65.012;25.464;2023-12-29T04:25:37;3.30;;;1.40;;
82511;SDS011;72152;65.012;25.464;2023-12-29T04:28:40;2.90;;;1.10;;
82511;SDS011;72152;65.012;25.464;2023-12-29T04:31:42;4.10;;;1.90;;
82511;SDS011;72152;65.012;25.464;2023-12-29T04:34:44;3.10;;;1.30;;
82511;SDS011;72152;65.012;25.464;2023-12-29T04:37:43;2.20;;;1.10;;
82511;SDS011;72152;65.012;25.464;2023-12-29T04:40:46;3.50;;;1.20;;
82511;SDS011;72152;65.012;25.464;2023-12-29T04:44:03;2.80;;;1.20;;
82511;SDS011;72152;65.012;25.464;2023-12-29T04:47:07;2.40;;;0.90;;
82511;SDS011;72152;65.012;25.464;2023-12-29T04:50:14;3.20;;;1.30;;
82511;SDS011;72152;65.012;25.464;2023-12-29T04:53:16;2.60;;;1.20;;
82511;SDS011;72152;65.012;25.464;2023-12-29T04:56:16;3.00;;;1.10;;
82511;SDS011;72152;65.012;25.464;2023-12-29T04:59:23;3.30;;;1.50;;
82511;SDS011;72152;65.012;25.464;2023-12-29T05:02:26;4.00;;;1.30;;
82511;SDS011;72152;65.012;25.464;2023-12-29T05:05:25;3.70;;;1.50;;
82511;SDS011;72152;65.012;25.464;2023-12-29T05:08:23;3.90;;;1.30;;
82511;SDS011;72152;65.012;25.464;2023-12-29T05:11:26;2.20;;;1.20;;
82511;SDS011;72152;65.012;25.464;2023-12-29T05:14:32;3.40;;;1.40;;
82511;SDS011;72152;65.012;25.464;2023-12-29T05:17:34;3.70;;;1.30;;
82511;SDS011;72152;65.012;25.464;2023-12-29T05:20:41;3.30;;;1.40;;
82511;SDS011;72152;65.012;25.464;2023-12-29T05:23:42;2.80;;;1.30;;
82511;SDS011;72152;65.012;25.464;2023-12-29T05:26:42;3.40;;;1.20;;
82511;SDS011;72152;65.012;25.464;2023-12-29T05:29:52;4.30;;;1.70;;
82511;SDS011;72152;65.012;25.464;2023-12-29T05:33:00;2.70;;;1.10;;
82511;SDS011;72152;65.012;25.464;2023-12-29T05:36:11;2.50;;;1.30;;
82511;SDS011;72152;65.012;25.464;2023-12-29T05:39:17;2.10;;;1.20;;
82511;SDS011;72152;65.012;25.464;2023-12-29T05:45:14;3.50;;;1.50;;
82511;SDS011;72152;65.012;25.464;2023-12-29T05:51:21;2.90;;;1.40;;
82511;SDS011;72152;65.012;25.464;2023-12-29T05:54:22;4.60;;;1.50;;
82511;SDS011;72152;65.012;25.464;2023-12-29T06:00:23;2.50;;;1.20;;
82511;SDS011;72152;65.012;25.464;2023-12-29T06:03:31;1.70;;;0.90;;
82511;SDS011;72152;65.012;25.464;2023-12-29T06:06:38;1.80;;;1.00;;
82511;SDS011;72152;65.012;25.464;2023-12-29T06:09:43;2.40;;;1.10;;
82511;SDS011;72152;65.012;25.464;2023-12-29T06:12:41;3.00;;;1.20;;
82511;SDS011;72152;65.012;25.464;2023-12-29T06:15:46;3.00;;;1.20;;
82511;SDS011;72152;65.012;25.464;2023-12-29T06:21:59;3.00;;;1.50;;
82511;SDS011;72152;65.012;25.464;2023-12-29T06:25:08;3.10;;;1.50;;
82511;SDS011;72152;65.012;25.464;2023-12-29T06:28:07;3.00;;;1.20;;
82511;SDS011;72152;65.012;25.464;2023-12-29T06:31:04;4.30;;;1.30;;
82511;SDS011;72152;65.012;25.464;2023-12-29T06:34:12;2.70;;;1.30;;
82511;SDS011;72152;65.012;25.464;2023-12-29T06:37:14;3.60;;;1.30;;
82511;SDS011;72152;65.012;25.464;2023-12-29T06:40:16;2.30;;;1.00;;
82511;SDS011;72152;65.012;25.464;2023-12-29T06:43:20;2.50;;;1.10;;
82511;SDS011;72152;65.012;25.464;2023-12-29T06:46:27;2.10;;;0.90;;
82511;SDS011;72152;65.012;25.464;2023-12-29T06:49:30;2.50;;;1.20;;
82511;SDS011;72152;65.012;25.464;2023-12-29T06:52:28;2.00;;;1.40;;
82511;SDS011;72152;65.012;25.464;2023-12-29T06:55:27;1.40;;;0.70;;
82511;SDS011;72152;65.012;25.464;2023-12-29T06:58:25;2.80;;;1.30;;
82511;SDS011;72152;65.012;25.464;2023-12-29T07:01:31;1.80;;;1.00;;
82511;SDS011;72152;65.012;25.464;2023-12-29T07:04:40;1.80;;;1.00;;
82511;SDS011;72152;65.012;25.464;2023-12-29T07:07:47;2.50;;;1.10;;
82511;SDS011;72152;65.012;25.464;2023-12-29T07:10:50;1.90;;;1.00;;
82511;SDS011;72152;65.012;25.464;2023-12-29T07:13:51;1.90;;;1.10;;
82511;SDS011;72152;65.012;25.464;2023-12-29T07:16:53;2.30;;;1.20;;
82511;SDS011;72152;65.012;25.464;2023-12-29T07:19:58;2.60;;;0.80;;
82511;SDS011;72152;65.012;25.464;2023-12-29T07:23:07;2.10;;;1.00;;
82511;SDS011;72152;65.012;25.464;2023-12-29T07:26:04;2.20;;;1.30;;
82511;SDS011;72152;65.012;25.464;2023-12-29T07:29:06;2.80;;;1.20;;
82511;SDS011;72152;65.012;25.464;2023-12-29T07:32:07;2.70;;;1.20;;
82511;SDS011;72152;65.012;25.464;2023-12-29T07:35:16;3.10;;;1.10;;
82511;SDS011;72152;65.012;25.464;2023-12-29T07:38:19;3.70;;;2.00;;
82511;SDS011;72152;65.012;25.464;2023-12-29T07:41:14;5.20;;;1.90;;
82511;SDS011;72152;65.012;25.464;2023-12-29T07:44:15;4.80;;;1.80;;
82511;SDS011;72152;65.012;25.464;2023-12-29T07:47:17;6.70;;;2.30;;
82511;SDS011;72152;65.012;25.464;2023-12-29T07:50:23;8.60;;;2.30;;
82511;SDS011;72152;65.012;25.464;2023-12-29T07:53:22;6.10;;;2.10;;
82511;SDS011;72152;65.012;25.464;2023-12-29T07:56:27;6.60;;;1.90;;
82511;SDS011;72152;65.012;25.464;2023-12-29T07:59:30;3.00;;;1.40;;
82511;SDS011;72152;65.012;25.464;2023-12-29T08:02:37;3.80;;;1.60;;
82511;SDS011;72152;65.012;25.464;2023-12-29T08:05:41;2.40;;;1.30;;
82511;SDS011;72152;65.012;25.464;2023-12-29T08:08:54;2.10;;;1.20;;
82511;SDS011;72152;65.012;25.464;2023-12-29T08:11:54;1.90;;;1.10;;
82511;SDS011;72152;65.012;25.464;2023-12-29T08:15:06;2.40;;;1.10;;
82511;SDS011;72152;65.012;25.464;2023-12-29T08:18:17;2.90;;;1.40;;
82511;SDS011;72152;65.012;25.464;2023-12-29T08:21:24;2.90;;;1.20;;
82511;SDS011;72152;65.012;25.464;2023-12-29T08:24:30;2.80;;;1.20;;
82511;SDS011;72152;65.012;25.464;2023-12-29T08:27:34;3.20;;;1.30;;
82511;SDS011;72152;65.012;25.464;2023-12-29T08:30:39;4.20;;;1.60;;
82511;SDS011;72152;65.012;25.464;2023-12-29T08:33:41;2.80;;;1.50;;
82511;SDS011;72152;65.012;25.464;2023-12-29T08:36:44;3.10;;;1.30;;
82511;SDS011;72152;65.012;25.464;2023-12-29T08:39:41;2.10;;;1.10;;
82511;SDS011;72152;65.012;25.464;2023-12-29T08:42:41;2.50;;;1.00;;
82511;SDS011;72152;65.012;25.464;2023-12-29T08:45:43;2.70;;;1.20;;
82511;SDS011;72152;65.012;25.464;2023-12-29T08:48:45;2.80;;;1.10;;
82511;SDS011;72152;65.012;25.464;2023-12-29T08:51:53;3.00;;;1.30;;
82511;SDS011;72152;65.012;25.464;2023-12-29T08:55:02;6.10;;;1.70;;
82511;SDS011;72152;65.012;25.464;2023-12-29T09:01:33;4.00;;;1.30;;
82511;SDS011;72152;65.012;25.464;2023-12-29T09:04:31;3.90;;;1.30;;
82511;SDS011;72152;65.012;25.464;2023-12-29T09:07:37;3.00;;;1.20;;
82511;SDS011;72152;65.012;25.464;2023-12-29T09:10:42;2.30;;;1.00;;
82511;SDS011;72152;65.012;25.464;2023-12-29T09:13:45;2.10;;;1.00;;
82511;SDS011;72152;65.012;25.464;2023-12-29T09:16:49;2.90;;;1.40;;
82511;SDS011;72152;65.012;25.464;2023-12-29T09:19:54;3.20;;;1.40;;
82511;SDS011;72152;65.012;25.464;2023-12-29T09:22:53;3.30;;;1.50;;
82511;SDS011;72152;65.012;25.464;2023-12-29T09:26:02;3.60;;;1.40;;
82511;SDS011;72152;65.012;25.464;2023-12-29T09:29:04;4.40;;;1.20;;
82511;SDS011;72152;65.012;25.464;2023-12-29T09:32:01;3.10;;;1.40;;
82511;SDS011;72152;65.012;25.464;2023-12-29T09:35:12;6.00;;;1.50;;
82511;SDS011;72152;65.012;25.464;2023-12-29T09:38:14;3.90;;;1.20;;
82511;SDS011;72152;65.012;25.464;2023-12-29T09:44:32;5.40;;;1.30;;
82511;SDS011;72152;65.012;25.464;2023-12-29T09:47:41;4.00;;;1.50;;
82511;SDS011;72152;65.012;25.464;2023-12-29T09:50:41;4.40;;;1.80;;
82511;SDS011;72152;65.012;25.464;2023-12-29T09:53:46;2.30;;;1.20;;
82511;SDS011;72152;65.012;25.464;2023-12-29T09:56:46;2.30;;;1.20;;
82511;SDS011;72152;65.012;25.464;2023-12-29T09:59:53;1.90;;;1.00;;
82511;SDS011;72152;65.012;25.464;2023-12-29T10:02:56;2.10;;;1.40;;
82511;SDS011;72152;65.012;25.464;2023-12-29T10:05:59;2.40;;;1.00;;
82511;SDS011;72152;65.012;25.464;2023-12-29T10:09:03;2.10;;;1.20;;
82511;SDS011;72152;65.012;25.464;2023-12-29T10:12:14;2.20;;;1.20;;
82511;SDS011;72152;65.012;25.464;2023-12-29T10:15:21;2.40;;;1.10;;
82511;SDS011;72152;65.012;25.464;2023-12-29T10:18:26;2.20;;;1.20;;
82511;SDS011;72152;65.012;25.464;2023-12-29T10:21:33;3.70;;;1.20;;
82511;SDS011;72152;65.012;25.464;2023-12-29T10:24:40;2.10;;;1.10;;
82511;SDS011;72152;65.012;25.464;2023-12-29T10:27:43;4.40;;;1.70;;
82511;SDS011;72152;65.012;25.464;2023-12-29T10:30:43;3.10;;;1.30;;
82511;SDS011;72152;65.012;25.464;2023-12-29T10:33:46;6.20;;;1.90;;
82511;SDS011;72152;65.012;25.464;2023-12-29T10:36:51;2.60;;;1.30;;
82511;SDS011;72152;65.012;25.464;2023-12-29T10:39:56;3.60;;;1.30;;
82511;SDS011;72152;65.012;25.464;2023-12-29T10:42:59;2.30;;;0.90;;
82511;SDS011;72152;65.012;25.464;2023-12-29T10:46:05;1.80;;;1.10;;
82511;SDS011;72152;65.012;25.464;2023-12-29T10:49:12;2.50;;;1.20;;
82511;SDS011;72152;65.012;25.464;2023-12-29T10:52:18;2.10;;;1.10;;
82511;SDS011;72152;65.012;25.464;2023-12-29T10:55:19;2.90;;;1.30;;
82511;SDS011;72152;65.012;25.464;2023-12-29T10:58:21;3.30;;;1.40;;
82511;SDS011;72152;65.012;25.464;2023-12-29T11:01:22;3.50;;;1.30;;
82511;SDS011;72152;65.012;25.464;2023-12-29T11:04:22;3.20;;;1.20;;
82511;SDS011;72152;65.012;25.464;2023-12-29T11:10:24;1.50;;;0.90;;
82511;SDS011;72152;65.012;25.464;2023-12-29T11:13:27;3.30;;;1.30;;
82511;SDS011;72152;65.012;25.464;2023-12-29T11:16:25;2.20;;;1.20;;
82511;SDS011;72152;65.012;25.464;2023-12-29T11:19:28;2.30;;;1.10;;
82511;SDS011;72152;65.012;25.464;2023-12-29T11:22:35;2.70;;;1.10;;
82511;SDS011;72152;65.012;25.464;2023-12-29T11:25:43;2.20;;;1.10;;
82511;SDS011;72152;65.012;25.464;2023-12-29T11:28:48;1.60;;;1.00;;
82511;SDS011;72152;65.012;25.464;2023-12-29T11:31:52;2.90;;;1.40;;
82511;SDS011;72152;65.012;25.464;2023-12-29T11:35:03;1.80;;;1.00;;
82511;SDS011;72152;65.012;25.464;2023-12-29T11:41:39;1.80;;;0.90;;
82511;SDS011;72152;65.012;25.464;2023-12-29T11:44:50;3.50;;;1.30;;
82511;SDS011;72152;65.012;25.464;2023-12-29T11:47:51;3.50;;;1.40;;
82511;SDS011;72152;65.012;25.464;2023-12-29T11:50:56;3.00;;;1.20;;
82511;SDS011;72152;65.012;25.464;2023-12-29T11:54:24;2.40;;;1.20;;
82511;SDS011;72152;65.012;25.464;2023-12-29T12:00:41;2.50;;;1.20;;
82511;SDS011;72152;65.012;25.464;2023-12-29T12:03:54;4.60;;;1.60;;
82511;SDS011;72152;65.012;25.464;2023-12-29T12:06:51;2.70;;;1.20;;
82511;SDS011;72152;65.012;25.464;2023-12-29T12:09:52;2.50;;;1.10;;
82511;SDS011;72152;65.012;25.464;2023-12-29T12:13:46;2.10;;;0.90;;
82511;SDS011;72152;65.012;25.464;2023-12-29T12:16:56;1.40;;;1.00;;
82511;SDS011;72152;65.012;25.464;2023-12-29T12:19:52;3.20;;;1.30;;
82511;SDS011;72152;65.012;25.464;2023-12-29T12:23:01;3.10;;;1.10;;
82511;SDS011;72152;65.012;25.464;2023-12-29T12:26:08;3.10;;;1.50;;
82511;SDS011;72152;65.012;25.464;2023-12-29T12:29:12;2.90;;;1.30;;
82511;SDS011;72152;65.012;25.464;2023-12-29T12:32:16;5.60;;;2.10;;
82511;SDS011;72152;65.012;25.464;2023-12-29T12:35:19;3.40;;;1.50;;
82511;SDS011;72152;65.012;25.464;2023-12-29T12:38:24;3.20;;;1.50;;
82511;SDS011;72152;65.012;25.464;2023-12-29T12:41:31;4.20;;;1.20;;
82511;SDS011;72152;65.012;25.464;2023-12-29T12:44:37;3.40;;;1.40;;
82511;SDS011;72152;65.012;25.464;2023-12-29T12:47:43;4.80;;;1.50;;
82511;SDS011;72152;65.012;25.464;2023-12-29T12:50:46;2.60;;;1.30;;
82511;SDS011;72152;65.012;25.464;2023-12-29T12:53:50;3.50;;;1.50;;
82511;SDS011;72152;65.012;25.464;2023-12-29T12:56:50;3.90;;;1.60;;
82511;SDS011;72152;65.012;25.464;2023-12-29T12:59:57;2.70;;;1.20;;
82511;SDS011;72152;65.012;25.464;2023-12-29T13:03:00;3.40;;;1.40;;
82511;SDS011;72152;65.012;25.464;2023-12-29T13:06:03;2.30;;;1.20;;
82511;SDS011;72152;65.012;25.464;2023-12-29T13:09:08;4.20;;;1.30;;
82511;SDS011;72152;65.012;25.464;2023-12-29T13:12:12;3.10;;;1.30;;
82511;SDS011;72152;65.012;25.464;2023-12-29T13:15:12;4.00;;;1.50;;
82511;SDS011;72152;65.012;25.464;2023-12-29T13:18:11;2.20;;;1.10;;
82511;SDS011;72152;65.012;25.464;2023-12-29T13:21:16;3.00;;;1.20;;
82511;SDS011;72152;65.012;25.464;2023-12-29T13:24:14;2.90;;;1.40;;
82511;SDS011;72152;65.012;25.464;2023-12-29T13:27:15;2.90;;;1.20;;
82511;SDS011;72152;65.012;25.464;2023-12-29T13:30:19;2.70;;;1.30;;
82511;SDS011;72152;65.012;25.464;2023-12-29T13:33:23;4.30;;;1.40;;
82511;SDS011;72152;65.012;25.464;2023-12-29T13:36:33;3.80;;;1.30;;
82511;SDS011;72152;65.012;25.464;2023-12-29T13:39:42;3.50;;;1.30;;
82511;SDS011;72152;65.012;25.464;2023-12-29T13:42:48;2.80;;;1.20;;
82511;SDS011;72152;65.012;25.464;2023-12-29T13:45:50;2.60;;;1.20;;
82511;SDS011;72152;65.012;25.464;2023-12-29T13:48:57;2.10;;;1.20;;
82511;SDS011;72152;65.012;25.464;2023-12-29T13:52:00;3.00;;;1.40;;
82511;SDS011;72152;65.012;25.464;2023-12-29T13:54:59;2.70;;;1.10;;
82511;SDS011;72152;65.012;25.464;2023-12-29T13:57:53;2.10;;;0.90;;
82511;SDS011;72152;65.012;25.464;2023-12-29T14:00:56;1.60;;;0.80;;
82511;SDS011;72152;65.012;25.464;2023-12-29T14:04:07;2.50;;;0.80;;
82511;SDS011;72152;65.012;25.464;2023-12-29T14:07:08;2.40;;;0.90;;
82511;SDS011;72152;65.012;25.464;2023-12-29T14:10:16;1.60;;;0.90;;
82511;SDS011;72152;65.012;25.464;2023-12-29T14:13:16;1.90;;;1.00;;
82511;SDS011;72152;65.012;25.464;2023-12-29T14:16:18;3.90;;;1.10;;
82511;SDS011;72152;65.012;25.464;2023-12-29T14:19:27;2.30;;;1.10;;
82511;SDS011;72152;65.012;25.464;2023-12-29T14:22:38;2.70;;;1.10;;
82511;SDS011;72152;65.012;25.464;2023-12-29T14:25:37;5.00;;;1.70;;
82511;SDS011;72152;65.012;25.464;2023-12-29T14:28:39;4.40;;;1.70;;
82511;SDS011;72152;65.012;25.464;2023-12-29T14:31:57;2.50;;;1.00;;
82511;SDS011;72152;65.012;25.464;2023-12-29T14:35:02;3.50;;;1.20;;
82511;SDS011;72152;65.012;25.464;2023-12-29T14:38:20;2.80;;;1.10;;
82511;SDS011;72152;65.012;25.464;2023-12-29T14:41:25;3.00;;;1.30;;
82511;SDS011;72152;65.012;25.464;2023-12-29T14:44:28;2.00;;;1.00;;
82511;SDS011;72152;65.012;25.464;2023-12-29T14:47:28;4.40;;;1.40;;
82511;SDS011;72152;65.012;25.464;2023-12-29T14:50:29;3.30;;;1.40;;
82511;SDS011;72152;65.012;25.464;2023-12-29T14:53:36;4.30;;;1.30;;
82511;SDS011;72152;65.012;25.464;2023-12-29T14:56:43;4.00;;;1.10;;
82511;SDS011;72152;65.012;25.464;2023-12-29T14:59:44;3.20;;;1.20;;
82511;SDS011;72152;65.012;25.464;2023-12-29T15:02:45;2.40;;;1.10;;
82511;SDS011;72152;65.012;25.464;2023-12-29T15:05:43;1.70;;;0.90;;
82511;SDS011;72152;65.012;25.464;2023-12-29T15:08:43;3.10;;;1.00;;
82511;SDS011;72152;65.012;25.464;2023-12-29T15:11:44;1.30;;;0.80;;
82511;SDS011;72152;65.012;25.464;2023-12-29T15:14:49;3.50;;;1.30;;
82511;SDS011;72152;65.012;25.464;2023-12-29T15:17:49;3.30;;;1.30;;
82511;SDS011;72152;65.012;25.464;2023-12-29T15:20:50;2.80;;;1.10;;
82511;SDS011;72152;65.012;25.464;2023-12-29T15:23:49;3.40;;;1.40;;
82511;SDS011;72152;65.012;25.464;2023-12-29T15:26:53;3.30;;;1.20;;
82511;SDS011;72152;65.012;25.464;2023-12-29T15:29:58;1.70;;;0.90;;
82511;SDS011;72152;65.012;25.464;2023-12-29T15:33:01;2.70;;;1.20;;
82511;SDS011;72152;65.012;25.464;2023-12-29T15:36:02;4.20;;;1.50;;
82511;SDS011;72152;65.012;25.464;2023-12-29T15:39:13;2.60;;;1.00;;
82511;SDS011;72152;65.012;25.464;2023-12-29T15:42:18;2.00;;;0.60;;
82511;SDS011;72152;65.012;25.464;2023-12-29T15:45:20;2.90;;;0.80;;
82511;SDS011;72152;65.012;25.464;2023-12-29T15:48:24;3.60;;;1.10;;
82511;SDS011;72152;65.012;25.464;2023-12-29T15:51:33;1.50;;;0.80;;
82511;SDS011;72152;65.012;25.464;2023-12-29T15:54:38;2.00;;;0.90;;
82511;SDS011;72152;65.012;25.464;2023-12-29T15:57:40;1.70;;;0.70;;
82511;SDS011;72152;65.012;25.464;2023-12-29T16:00:47;2.10;;;0.90;;
82511;SDS011;72152;65.012;25.464;2023-12-29T16:03:56;1.40;;;0.90;;
82511;SDS011;72152;65.012;25.464;2023-12-29T16:07:06;3.10;;;1.50;;
82511;SDS011;72152;65.012;25.464;2023-12-29T16:10:15;2.70;;;1.30;;
82511;SDS011;72152;65.012;25.464;2023-12-29T16:13:18;2.80;;;1.10;;
82511;SDS011;72152;65.012;25.464;2023-12-29T16:16:24;2.10;;;1.00;;
82511;SDS011;72152;65.012;25.464;2023-12-29T16:22:24;5.50;;;1.90;;
82511;SDS011;72152;65.012;25.464;2023-12-29T16:25:22;3.60;;;1.40;;
82511;SDS011;72152;65.012;25.464;2023-12-29T16:28:27;3.20;;;1.20;;
82511;SDS011;72152;65.012;25.464;2023-12-29T16:31:22;2.00;;;1.20;;
82511;SDS011;72152;65.012;25.464;2023-12-29T16:34:27;2.90;;;1.20;;
82511;SDS011;72152;65.012;25.464;2023-12-29T16:37:24;5.40;;;1.90;;
82511;SDS011;72152;65.012;25.464;2023-12-29T16:40:32;5.20;;;1.70;;
82511;SDS011;72152;65.012;25.464;2023-12-29T16:43:43;4.80;;;1.70;;
82511;SDS011;72152;65.012;25.464;2023-12-29T16:46:44;4.60;;;2.20;;
82511;SDS011;72152;65.012;25.464;2023-12-29T16:49:45;3.40;;;1.60;;
82511;SDS011;72152;65.012;25.464;2023-12-29T16:53:02;6.70;;;2.30;;
82511;SDS011;72152;65.012;25.464;2023-12-29T16:56:13;3.10;;;1.40;;
82511;SDS011;72152;65.012;25.464;2023-12-29T16:59:14;3.30;;;1.20;;
82511;SDS011;72152;65.012;25.464;2023-12-29T17:02:17;2.60;;;1.20;;
82511;SDS011;72152;65.012;25.464;2023-12-29T17:05:23;4.40;;;1.40;;
82511;SDS011;72152;65.012;25.464;2023-12-29T17:08:28;5.60;;;2.00;;
82511;SDS011;72152;65.012;25.464;2023-12-29T17:11:29;5.60;;;1.70;;
82511;SDS011;72152;65.012;25.464;2023-12-29T17:14:32;3.80;;;1.50;;
82511;SDS011;72152;65.012;25.464;2023-12-29T17:17:34;3.80;;;1.40;;
82511;SDS011;72152;65.012;25.464;2023-12-29T17:20:29;5.00;;;1.60;;
82511;SDS011;72152;65.012;25.464;2023-12-29T17:23:29;4.60;;;1.70;;
82511;SDS011;72152;65.012;25.464;2023-12-29T17:26:31;4.20;;;1.60;;
82511;SDS011;72152;65.012;25.464;2023-12-29T17:29:37;3.40;;;1.80;;
82511;SDS011;72152;65.012;25.464;2023-12-29T17:32:42;5.50;;;2.30;;
82511;SDS011;72152;65.012;25.464;2023-12-29T17:35:47;4.60;;;1.90;;
82511;SDS011;72152;65.012;25.464;2023-12-29T17:38:51;3.70;;;1.50;;
82511;SDS011;72152;65.012;25.464;2023-12-29T17:41:56;3.40;;;1.60;;
82511;SDS011;72152;65.012;25.464;2023-12-29T17:45:04;4.60;;;1.80;;
82511;SDS011;72152;65.012;25.464;2023-12-29T17:48:14;5.10;;;1.90;;
82511;SDS011;72152;65.012;25.464;2023-12-29T17:51:24;3.40;;;1.70;;
82511;SDS011;72152;65.012;25.464;2023-12-29T17:54:28;4.00;;;1.50;;
82511;SDS011;72152;65.012;25.464;2023-12-29T17:57:34;3.40;;;1.70;;
82511;SDS011;72152;65.012;25.464;2023-12-29T18:00:34;4.20;;;1.60;;
82511;SDS011;72152;65.012;25.464;2023-12-29T18:03:41;4.80;;;2.00;;
82511;SDS011;72152;65.012;25.464;2023-12-29T18:06:41;3.80;;;1.60;;
82511;SDS011;72152;65.012;25.464;2023-12-29T18:09:42;4.60;;;1.90;;
82511;SDS011;72152;65.012;25.464;2023-12-29T18:12:47;4.30;;;1.80;;
82511;SDS011;72152;65.012;25.464;2023-12-29T18:15:51;5.50;;;1.60;;
82511;SDS011;72152;65.012;25.464;2023-12-29T18:18:54;4.70;;;1.70;;
82511;SDS011;72152;65.012;25.464;2023-12-29T18:21:55;3.70;;;1.60;;
82511;SDS011;72152;65.012;25.464;2023-12-29T18:24:56;3.90;;;1.70;;
82511;SDS011;72152;65.012;25.464;2023-12-29T18:28:05;4.80;;;1.70;;
82511;SDS011;72152;65.012;25.464;2023-12-29T18:31:04;3.30;;;1.50;;
82511;SDS011;72152;65.012;25.464;2023-12-29T18:34:09;3.10;;;1.70;;
82511;SDS011;72152;65.012;25.464;2023-12-29T18:37:18;4.20;;;1.90;;
82511;SDS011;72152;65.012;25.464;2023-12-29T18:40:22;3.80;;;1.50;;
82511;SDS011;72152;65.012;25.464;2023-12-29T18:43:27;3.70;;;1.70;;
82511;SDS011;72152;65.012;25.464;2023-12-29T18:46:24;2.30;;;1.20;;